Time;durP1;ratioP1;P1;durP2;ratioP2;P2;SDS_P1;SDS_P2;PMS_P1;PMS_P2;Temp;Humidity;BMP_temperature;BMP_pressure;BME280_temperature;BME280_humidity;BME280_pressure;Samples;Min_cycle;Max_cycle;Signal;HPM_P1;HPM_P2
2021/09/06 00:00:23;;;;;;;24.33;3.40;;;;;;;;;;4893679;28;20193;-75
2021/09/06 00:02:46;;;;;;;10.53;1.67;;;;;;;;;;4893437;28;20249;-75
2021/09/06 00:05:10;;;;;;;8.13;1.30;;;5.60;42.20;;;;;;4890523;28;20189;-75
2021/09/06 00:07:33;;;;;;;7.33;1.20;;;;;;;;;;4894543;28;20581;-75
2021/09/06 00:10:02;;;;;;;5.47;1.00;;;6.50;42.10;;;;;;4894293;28;20208;-75
2021/09/06 00:12:25;;;;;;;10.23;1.63;;;;;;;;;;4893294;28;20185;-76
2021/09/06 00:14:47;;;;;;;11.73;1.73;;;;;;;;;;4893137;28;20234;-75
2021/09/06 00:17:10;;;;;;;8.50;1.30;;;;;;;;;;4892771;28;20255;-75
2021/09/06 00:19:33;;;;;;;9.77;1.53;;;;;;;;;;4879338;28;20711;-76
2021/09/06 00:21:56;;;;;;;10.13;1.60;;;;;;;;;;4894064;28;20196;-75
2021/09/06 00:24:19;;;;;;;10.03;1.63;;;;;;;;;;4893648;28;20184;-75
2021/09/06 00:26:43;;;;;;;11.00;1.73;;;6.20;41.40;;;;;;4894590;28;20203;-75
2021/09/06 00:29:07;;;;;;;7.77;1.30;;;;;;;;;;4897787;28;20189;-75
2021/09/06 00:31:30;;;;;;;9.20;1.47;;;;;;;;;;4896100;28;20201;-75
2021/09/06 00:33:53;;;;;;;14.37;2.13;;;;;;;;;;4895353;28;20250;-75
2021/09/06 00:36:15;;;;;;;7.67;1.30;;;;;;;;;;4895034;28;20201;-75
2021/09/06 00:38:38;;;;;;;10.23;1.77;;;;;;;;;;4898026;28;20254;-75
2021/09/06 00:41:01;;;;;;;9.40;1.57;;;;;;;;;;4896541;28;20636;-75
2021/09/06 00:43:25;;;;;;;16.93;2.47;;;6.00;41.00;;;;;;4895436;28;20294;-75
2021/09/06 00:45:48;;;;;;;14.23;2.13;;;;;;;;;;4896406;28;20258;-76
2021/09/06 00:48:10;;;;;;;5.67;1.00;;;;;;;;;;4895444;28;20197;-76
2021/09/06 00:50:34;;;;;;;7.17;1.20;;;6.00;40.60;;;;;;4881326;28;20242;-77
2021/09/06 00:52:57;;;;;;;7.60;1.27;;;;;;;;;;4897548;28;20189;-75
2021/09/06 00:55:19;;;;;;;10.17;1.57;;;;;;;;;;4891834;28;20222;-75
2021/09/06 00:57:44;;;;;;;10.70;1.60;;;5.90;40.10;;;;;;4896308;28;20241;-74
2021/09/06 01:00:11;;;;;;;7.33;1.30;;;5.90;40.00;;;;;;4896299;28;20205;-75
2021/09/06 01:02:34;;;;;;;8.80;1.43;;;;;;;;;;4894097;28;20201;-76
2021/09/06 01:04:57;;;;;;;14.23;2.10;;;;;;;;;;4896616;28;20806;-76
2021/09/06 01:07:35;;;;;;;6.13;1.10;;;;;;;;;;4889901;28;20234;-75
2021/09/06 01:10:24;;;;;;;9.90;1.57;;;;;;;;;;4897322;28;20204;-75
2021/09/06 01:13:07;;;;;;;10.30;1.60;;;;;;;;;;4896912;28;20197;-81
2021/09/06 01:15:31;;;;;;;11.63;1.77;;;5.90;39.30;;;;;;4895106;28;20216;-79
2021/09/06 01:17:54;;;;;;;14.10;2.20;;;;;;;;;;4895349;28;20204;-76
2021/09/06 01:20:19;;;;;;;11.17;1.77;;;;;;;;;;4891237;28;20658;-77
2021/09/06 01:22:48;;;;;;;8.53;1.37;;;;;;;;;;4895044;28;20246;-74
2021/09/06 01:25:15;;;;;;;9.97;1.63;;;5.60;41.20;;;;;;4897034;28;20181;-76
2021/09/06 01:27:39;;;;;;;8.60;1.47;;;5.50;41.30;;;;;;4881155;28;20648;-75
2021/09/06 01:30:02;;;;;;;5.17;0.90;;;;;;;;;;4895687;28;20228;-75
2021/09/06 01:32:28;;;;;;;9.43;1.53;;;;;;;;;;4886082;28;20760;-75
2021/09/06 01:34:51;;;;;;;10.73;1.70;;;;;;;;;;4896990;28;20188;-75
2021/09/06 01:37:14;;;;;;;9.40;1.60;;;;;;;;;;4894128;28;20201;-75
2021/09/06 01:39:43;;;;;;;14.70;2.33;;;;;;;;;;4891712;28;20258;-75
2021/09/06 01:42:06;;;;;;;7.53;1.27;;;;;;;;;;4894995;28;20260;-75
2021/09/06 01:44:30;;;;;;;8.43;1.43;;;4.90;41.20;;;;;;4878920;28;20206;-75
2021/09/06 01:46:53;;;;;;;11.07;1.80;;;;;;;;;;4894704;28;20716;-75
2021/09/06 01:49:17;;;;;;;7.53;1.27;;;;;;;;;;4894004;28;20193;-75
2021/09/06 01:51:43;;;;;;;13.27;2.13;;;;;;;;;;4894766;28;20224;-76
2021/09/06 01:54:06;;;;;;;7.03;1.30;;;;;;;;;;4894879;28;20193;-76
2021/09/06 01:56:29;;;;;;;9.67;1.57;;;;;;;;;;4894725;28;20196;-75
2021/09/06 01:58:54;;;;;;;11.90;2.00;;;4.60;40.60;;;;;;4876926;28;20675;-75
2021/09/06 02:01:18;;;;;;;13.20;2.03;;;4.50;40.60;;;;;;4893185;28;20196;-74
2021/09/06 02:03:41;;;;;;;11.37;1.87;;;;;;;;;;4894407;28;20192;-75
2021/09/06 02:06:06;;;;;;;4.43;0.80;;;;;;;;;;4894408;28;20208;-76
2021/09/06 02:08:39;;;;;;;14.07;2.27;;;;;;;;;;4894025;28;20231;-75
2021/09/06 02:11:02;;;;;;;6.07;1.07;;;;;;;;;;4893053;28;20702;-77
2021/09/06 02:13:25;;;;;;;10.10;1.63;;;;;;;;;;4894336;28;20278;-77
2021/09/06 02:15:48;;;;;;;11.03;1.87;;;;;;;;;;4894299;28;20595;-76
2021/09/06 02:18:12;;;;;;;7.10;1.23;;;4.20;40.50;;;;;;4896149;28;20188;-76
2021/09/06 02:20:35;;;;;;;8.30;1.47;;;;;;;;;;4880199;28;20181;-75
2021/09/06 02:23:01;;;;;;;6.17;1.13;;;;;;;;;;4893966;28;20720;-75
2021/09/06 02:25:24;;;;;;;7.80;1.33;;;;;;;;;;4894022;28;20204;-75
2021/09/06 02:27:47;;;;;;;10.50;1.80;;;;;;;;;;4893677;28;20197;-75
2021/09/06 02:30:16;;;;;;;13.27;2.07;;;;;;;;;;4866933;28;20221;-75
2021/09/06 02:32:38;;;;;;;6.27;1.13;;;;;;;;;;4863686;28;20619;-75
2021/09/06 02:35:25;;;;;;;9.27;1.53;;;4.00;39.70;;;;;;4893042;28;20200;-75
2021/09/06 02:37:49;;;;;;;9.83;1.63;;;;;;;;;;4895762;28;20184;-77
2021/09/06 02:40:14;;;;;;;6.40;1.07;;;3.90;39.50;;;;;;4876879;28;20223;-76
2021/09/06 02:42:39;;;;;;;4.70;0.87;;;;;;;;;;4893423;28;20216;-75
2021/09/06 02:45:01;;;;;;;7.43;1.27;;;;;;;;;;4893711;28;20189;-75
2021/09/06 02:47:24;;;;;;;8.97;1.57;;;;;;;;;;4877039;28;20193;-75
2021/09/06 02:49:47;;;;;;;13.83;2.30;;;;;;;;;;4892719;28;20625;-75
2021/09/06 02:52:17;;;;;;;11.03;2.00;;;3.70;38.50;;;;;;4894349;28;20180;-74
2021/09/06 02:54:40;;;;;;;14.57;2.33;;;;;;;;;;4895375;28;20219;-75
2021/09/06 02:57:03;;;;;;;7.60;1.30;;;;;;;;;;4893662;28;20188;-75
2021/09/06 02:59:26;;;;;;;9.53;1.67;;;;;;;;;;4893017;28;20306;-76
2021/09/06 03:01:51;;;;;;;12.20;2.03;;;;;;;;;;4891161;28;20262;-76
2021/09/06 03:04:14;;;;;;;7.73;1.37;;;;;;;;;;4892897;28;20646;-75
2021/09/06 03:06:37;;;;;;;5.47;1.03;;;;;;;;;;4893064;28;20217;-75
2021/09/06 03:09:03;;;;;;;4.87;0.87;;;3.70;37.30;;;;;;4894542;28;20199;-75
2021/09/06 03:11:26;;;;;;;10.90;1.90;;;;;;;;;;4894994;28;20213;-76
2021/09/06 03:13:51;;;;;;;8.00;1.43;;;;;;;;;;4892415;28;20755;-75
2021/09/06 03:16:14;;;;;;;7.40;1.30;;;;;;;;;;4893587;28;20200;-76
2021/09/06 03:18:37;;;;;;;8.10;1.47;;;;;;;;;;4890080;28;20243;-76
2021/09/06 03:21:19;;;;;;;7.23;1.30;;;;;;;;;;4876560;28;20193;-75
2021/09/06 03:23:44;;;;;;;16.97;2.70;;;;;;;;;;4887994;28;20201;-76
2021/09/06 03:26:08;;;;;;;5.73;1.10;;;3.50;36.80;;;;;;4888050;28;20651;-75
2021/09/06 03:28:32;;;;;;;6.27;1.10;;;;;;;;;;4893923;28;20258;-76
2021/09/06 03:30:55;;;;;;;11.87;2.03;;;;;;;;;;4890368;28;20707;-76
2021/09/06 03:33:19;;;;;;;5.90;1.10;;;;;;;;;;4884203;28;20695;-76
2021/09/06 03:35:47;;;;;;;10.70;1.73;;;;;;;;;;4891841;28;20267;-75
2021/09/06 03:38:10;;;;;;;7.90;1.40;;;;;;;;;;4894611;28;20234;-76
2021/09/06 03:40:35;;;;;;;7.87;1.33;;;3.30;37.70;;;;;;4888574;28;20608;-77
2021/09/06 03:42:59;;;;;;;3.97;0.80;;;3.30;38.10;;;;;;4893176;28;20365;-76
2021/09/06 03:45:23;;;;;;;11.57;1.93;;;;;;;;;;4887155;28;20242;-75
2021/09/06 03:47:49;;;;;;;10.53;1.77;;;;;;;;;;4892103;28;20189;-77
2021/09/06 03:50:12;;;;;;;6.37;1.17;;;;;;;;;;4892979;28;20201;-75
2021/09/06 03:52:36;;;;;;;8.30;1.43;;;;;;;;;;4878875;28;20217;-81
2021/09/06 03:54:59;;;;;;;5.00;0.97;;;;;;;;;;4892901;28;20678;-75
2021/09/06 03:57:24;;;;;;;9.57;1.60;;;;;;;;;;4891738;28;20205;-83
2021/09/06 03:59:48;;;;;;;11.23;1.83;;;3.10;36.90;;;;;;4876034;28;20198;-76
2021/09/06 04:02:10;;;;;;;6.07;1.03;;;;;;;;;;4891485;28;20197;-75
2021/09/06 04:04:33;;;;;;;7.83;1.30;;;;;;;;;;4879610;28;20177;-77
2021/09/06 04:06:59;;;;;;;7.60;1.23;;;;;;;;;;4890534;28;20224;-75
2021/09/06 04:09:28;;;;;;;7.47;1.17;;;;;;;;;;4892286;28;20204;-75
2021/09/06 04:11:51;;;;;;;13.53;2.30;;;;;;;;;;4892195;28;20219;-75
2021/09/06 04:14:17;;;;;;;5.40;0.90;;;;;;;;;;4894233;28;20185;-74
2021/09/06 04:16:43;;;;;;;14.30;2.23;;;3.20;35.30;;;;;;4891792;28;20231;-75
2021/09/06 04:19:07;;;;;;;7.67;1.33;;;;;;;;;;4892848;28;20193;-75
2021/09/06 04:21:30;;;;;;;8.87;1.50;;;;;;;;;;4892471;28;20197;-74
2021/09/06 04:23:53;;;;;;;15.73;2.50;;;;;;;;;;4892493;28;20250;-74
2021/09/06 04:26:16;;;;;;;10.40;1.70;;;;;;;;;;4892169;28;20238;-75
2021/09/06 04:28:44;;;;;;;13.43;2.13;;;;;;;;;;4885420;28;20231;-75
2021/09/06 04:31:08;;;;;;;8.93;1.57;;;;;;;;;;4892373;28;20221;-75
2021/09/06 04:33:34;;;;;;;6.03;1.03;;;3.30;34.50;;;;;;4884663;28;20216;-78
2021/09/06 04:35:57;;;;;;;6.70;1.20;;;;;;;;;;4892629;28;20205;-75
2021/09/06 04:38:23;;;;;;;15.63;2.43;;;;;;;;;;4891353;28;20729;-75
2021/09/06 04:40:46;;;;;;;8.50;1.43;;;;;;;;;;4892576;28;20199;-75
2021/09/06 04:43:09;;;;;;;6.80;1.17;;;;;;;;;;4892376;28;20220;-77
2021/09/06 04:45:31;;;;;;;7.23;1.23;;;;;;;;;;4892902;28;20181;-75
2021/09/06 04:47:54;;;;;;;10.90;1.83;;;;;;;;;;4886906;28;20190;-74
2021/09/06 04:50:19;;;;;;;7.27;1.20;;;3.70;33.30;;;;;;4890368;28;20193;-75
2021/09/06 04:52:41;;;;;;;7.37;1.23;;;;;;;;;;4892720;28;20216;-75
2021/09/06 04:55:08;;;;;;;6.50;1.13;;;;;;;;;;4890853;28;20184;-76
2021/09/06 04:57:32;;;;;;;7.47;1.30;;;;;;;;;;4892164;28;20302;-75
2021/09/06 04:59:55;;;;;;;12.87;2.10;;;;;;;;;;4891151;28;20597;-75
2021/09/06 05:02:18;;;;;;;7.33;1.30;;;;;;;;;;4891938;28;20222;-75
2021/09/06 05:04:41;;;;;;;10.70;1.73;;;4.30;32.10;;;;;;4891579;28;20755;-75
2021/09/06 05:07:07;;;;;;;7.33;1.27;;;4.40;31.90;;;;;;4892067;28;20220;-76
2021/09/06 05:09:30;;;;;;;5.63;1.00;;;;;;;;;;4891927;28;20619;-77
2021/09/06 05:11:53;;;;;;;9.57;1.63;;;;;;;;;;4891243;28;20208;-75
2021/09/06 05:14:16;;;;;;;10.77;1.80;;;;;;;;;;4895580;28;20580;-75
2021/09/06 05:16:40;;;;;;;8.17;1.37;;;;;;;;;;4895548;28;20630;-75
2021/09/06 05:19:03;;;;;;;11.80;1.97;;;;;;;;;;4891866;28;20205;-77
2021/09/06 05:21:29;;;;;;;6.47;1.13;;;;;;;;;;4895363;28;20658;-75
2021/09/06 05:23:53;;;;;;;9.10;1.60;;;5.20;30.70;;;;;;4878906;28;20186;-75
2021/09/06 05:26:16;;;;;;;10.83;1.83;;;;;;;;;;4895528;28;20235;-75
2021/09/06 05:28:40;;;;;;;9.00;1.47;;;;;;;;;;4895232;28;20769;-75
2021/09/06 05:31:05;;;;;;;10.73;1.80;;;;;;;;;;4894318;28;20633;-74
2021/09/06 05:33:35;;;;;;;5.10;1.00;;;;;;;;;;4893183;28;20638;-75
2021/09/06 05:35:58;;;;;;;4.53;0.90;;;;;;;;;;4895818;28;20747;-76
2021/09/06 05:38:20;;;;;;;7.03;1.20;;;;;;;;;;4896090;28;20242;-75
2021/09/06 05:41:03;;;;;;;6.27;1.20;;;6.30;99.90;;;;;;4880824;28;20185;-75
2021/09/06 05:43:26;;;;;;;9.03;1.60;;;;;;;;;;4875722;28;20221;-76
2021/09/06 05:45:49;;;;;;;9.13;1.50;;;;;;;;;;4876684;28;20248;-75
2021/09/06 05:48:12;;;;;;;8.33;1.43;;;;;;;;;;4876322;28;20587;-77
2021/09/06 05:50:35;;;;;;;8.17;1.43;;;;;;;;;;4878234;28;20181;-75
2021/09/06 05:53:16;;;;;;;9.00;1.53;;;;;;;;;;4877383;28;20250;-76
2021/09/06 05:55:40;;;;;;;6.90;1.30;;;;;;;;;;4888362;28;20223;-75
2021/09/06 05:58:04;;;;;;;7.17;1.23;;;7.70;34.80;;;;;;4894584;28;20193;-75
2021/09/06 06:00:27;;;;;;;38.23;5.67;;;;;;;;;;4895044;28;20242;-75
2021/09/06 06:02:50;;;;;;;10.10;1.70;;;;;;;;;;4896230;28;20227;-75
2021/09/06 06:05:13;;;;;;;10.73;1.87;;;;;;;;;;4895849;28;20243;-79
2021/09/06 06:07:36;;;;;;;4.03;0.80;;;;;;;;;;4894263;28;20227;-75
2021/09/06 06:09:59;;;;;;;7.17;1.30;;;;;;;;;;4890592;28;20690;-76
2021/09/06 06:12:28;;;;;;;211.70;30.63;;;8.60;44.80;;;;;;4880699;28;20224;-76
2021/09/06 06:14:53;;;;;;;10.77;1.80;;;8.70;44.90;;;;;;4870732;28;20677;-78
2021/09/06 06:17:16;;;;;;;8.00;1.47;;;;;;;;;;4885931;28;20192;-75
2021/09/06 06:19:39;;;;;;;10.13;1.67;;;;;;;;;;4883362;28;20197;-75
2021/09/06 06:22:21;;;;;;;8.50;1.57;;;;;;;;;;4894829;28;20185;-76
2021/09/06 06:24:54;;;;;;;11.27;1.90;;;;;;;;;;4876145;28;20581;-76
2021/09/06 06:27:28;;;;;;;8.47;1.43;;;;;;;;;;4893788;28;20234;-76
2021/09/06 06:29:53;;;;;;;6.90;1.27;;;9.00;45.50;;;;;;4892082;28;20197;-76
2021/09/06 06:32:16;;;;;;;7.73;1.40;;;;;;;;;;4877309;28;20209;-74
2021/09/06 06:34:41;;;;;;;13.37;2.20;;;;;;;;;;4894100;28;20192;-75
2021/09/06 06:37:04;;;;;;;9.90;1.63;;;9.40;46.20;;;;;;4893713;28;20197;-75
2021/09/06 06:39:28;;;;;;;8.43;1.53;;;;;;;;;;4888516;28;20193;-74
2021/09/06 06:41:53;;;;;;;7.40;1.37;;;;;;;;;;4894603;28;20201;-75
2021/09/06 06:44:16;;;;;;;9.70;1.60;;;;;;;;;;4895730;28;20189;-74
2021/09/06 06:46:40;;;;;;;10.30;1.70;;;9.80;46.70;;;;;;4894848;28;20181;-75
2021/09/06 06:49:03;;;;;;;87.10;11.97;;;;;;;;;;4872551;28;20189;-78
2021/09/06 06:51:29;;;;;;;7.50;1.30;;;;;;;;;;4884538;28;20213;-77
2021/09/06 06:53:53;;;;;;;9.67;1.60;;;10.20;46.60;;;;;;4876751;28;20224;-81
2021/09/06 06:56:22;;;;;;;7.70;1.37;;;;;;;;;;4892480;28;20710;-77
2021/09/06 06:58:47;;;;;;;13.87;2.23;;;;;;;;;;4875872;28;20189;-74
2021/09/06 07:01:12;;;;;;;26.90;4.07;;;;;;;;;;4874106;28;20300;-76
2021/09/06 07:03:39;;;;;;;10.80;1.77;;;10.70;47.10;;;;;;4893280;28;20200;-83
2021/09/06 07:06:05;;;;;;;12.40;1.97;;;;;;;;;;4889369;28;20217;-77
2021/09/06 07:08:31;;;;;;;9.10;1.50;;;;;;;;;;4885933;28;20208;-80
2021/09/06 07:10:54;;;;;;;7.10;1.23;;;;;;;;;;4895188;28;20192;-85
2021/09/06 07:13:17;;;;;;;6.93;1.17;;;;;;;;;;4892893;28;20250;-88
2021/09/06 07:18:09;;;;;;;106.17;14.87;;;;;;;;;;4773667;28;20314;-74
2021/09/06 07:20:34;;;;;;;9.67;1.57;;;11.60;48.10;;;;;;4787980;28;20290;-82
2021/09/06 07:22:56;;;;;;;7.67;1.33;;;;;;;;;;4770215;28;20713;-87
2021/09/06 07:25:19;;;;;;;4.70;0.83;;;;;;;;;;4780893;28;20208;-86
2021/09/06 07:27:43;;;;;;;13.20;2.10;;;;;;;;;;4778178;28;20685;-83
2021/09/06 07:30:08;;;;;;;9.90;1.63;;;12.20;48.60;;;;;;4782352;28;20201;-81
2021/09/06 07:32:32;;;;;;;7.73;1.33;;;;;;;;;;4796619;28;20267;-81
2021/09/06 07:34:55;;;;;;;17.20;2.67;;;;;;;;;;4777534;29;20273;-83
2021/09/06 07:37:20;;;;;;;10.93;1.80;;;12.60;49.10;;;;;;4781830;28;20252;-82
2021/09/06 07:39:47;;;;;;;16.67;2.60;;;12.70;48.00;;;;;;4781560;28;20209;-84
2021/09/06 07:42:11;;;;;;;9.70;1.67;;;;;;;;;;4743016;28;20222;-79
2021/09/06 07:44:35;;;;;;;4.87;0.93;;;;;;;;;;4772770;29;20205;-89
2021/09/06 07:46:58;;;;;;;11.00;1.87;;;;;;;;;;4779683;28;20374;-88
2021/09/06 07:49:22;;;;;;;7.13;1.20;;;13.40;50.50;;;;;;4778115;28;20272;-84
2021/09/06 07:51:46;;;;;;;13.93;2.20;;;;;;;;;;4781255;28;20209;-87
2021/09/06 07:54:10;;;;;;;8.53;1.57;;;13.60;50.90;;;;;;4782845;28;20221;-88
2021/09/06 07:56:35;;;;;;;10.43;1.77;;;;;;;;;;4792314;28;20709;-83
2021/09/06 07:59:11;;;;;;;4.87;0.83;;;13.90;51.30;;;;;;4793877;28;20196;-84
2021/09/06 08:01:34;;;;;;;10.00;1.80;;;;;;;;;;4794538;28;20267;-83
2021/09/06 08:03:57;;;;;;;14.40;2.33;;;;;;;;;;4778042;28;20208;-77
2021/09/06 08:06:20;;;;;;;8.90;1.53;;;;;;;;;;4799276;28;20191;-84
2021/09/06 08:08:52;;;;;;;13.53;2.20;;;14.60;52.20;;;;;;4770187;29;20202;-89
2021/09/06 08:11:45;;;;;;;12.67;2.00;;;14.80;52.50;;;;;;4791733;28;20623;-79
2021/09/06 08:14:11;;;;;;;10.93;1.80;;;;;;;;;;4781362;28;20224;-80
2021/09/06 08:16:34;;;;;;;11.13;1.80;;;;;;;;;;4783804;28;20215;-81
2021/09/06 08:18:57;;;;;;;18.17;2.87;;;;;;;;;;4765016;28;20257;-81
2021/09/06 08:21:20;;;;;;;19.40;2.97;;;;;;;;;;4780943;28;20261;-81
2021/09/06 08:23:44;;;;;;;13.17;2.07;;;;;;;;;;4773812;29;20838;-79
2021/09/06 08:26:07;;;;;;;8.93;1.40;;;;;;;;;;4778637;28;20201;-78
2021/09/06 08:28:31;;;;;;;7.00;1.13;;;15.60;54.70;;;;;;4774668;28;20267;-84
2021/09/06 08:30:54;;;;;;;13.63;2.20;;;;;;;;;;4781620;28;20204;-82
2021/09/06 08:33:19;;;;;;;9.83;1.67;;;;;;;;;;4780063;28;20288;-75
2021/09/06 08:35:42;;;;;;;12.13;1.97;;;;;;;;;;4763434;28;20272;-80
2021/09/06 08:38:06;;;;;;;7.60;1.30;;;;;;;;;;4767570;29;20281;-74
2021/09/06 08:40:30;;;;;;;8.47;1.43;;;;;;;;;;4763624;28;20205;-78
2021/09/06 08:42:54;;;;;;;12.83;2.10;;;16.90;56.20;;;;;;4780603;28;20702;-77
2021/09/06 08:45:18;;;;;;;7.80;1.30;;;17.00;56.40;;;;;;4784320;28;20263;-78
2021/09/06 08:47:43;;;;;;;19.97;2.70;;;;;;;;;;4780476;28;20624;-84
2021/09/06 08:50:08;;;;;;;10.03;1.50;;;17.40;56.60;;;;;;4785312;28;20209;-82
2021/09/06 08:52:31;;;;;;;7.80;1.23;;;;;;;;;;4800527;28;20194;-81
2021/09/06 08:54:54;;;;;;;15.97;2.03;;;;;;;;;;4783606;28;20264;-83
2021/09/06 08:57:17;;;;;;;11.33;1.57;;;;;;;;;;4784601;28;20690;-90
2021/09/06 08:59:41;;;;;;;7.20;1.00;;;18.30;57.60;;;;;;4785190;28;20618;-82
2021/09/06 09:02:27;;;;;;;9.77;1.40;;;21.10;59.00;;;;;;4775650;28;20236;-80
2021/09/06 09:05:02;;;;;;;18.43;2.43;;;;;;;;;;4767908;28;20719;-78
2021/09/06 09:07:40;;;;;;;12.03;1.60;;;;;;;;;;4784380;28;20222;-88
2021/09/06 09:10:37;;;;;;;12.83;1.70;;;27.20;47.70;;;;;;4785675;28;20671;-81
2021/09/06 09:13:34;;;;;;;12.73;1.63;;;29.80;48.90;;;;;;4783315;29;20243;-82
2021/09/06 09:16:20;;;;;;;7.37;1.00;;;;;;;;;;4790841;28;20238;-83
2021/09/06 09:19:07;;;;;;;19.63;2.50;;;34.00;50.60;;;;;;4802981;28;20702;-78
2021/09/06 09:22:01;;;;;;;22.93;2.87;;;35.80;51.40;;;;;;4768671;28;20683;-84
2021/09/06 09:25:00;;;;;;;19.83;2.53;;;37.10;51.90;;;;;;4792068;28;20274;-83
2021/09/06 09:27:35;;;;;;;11.88;1.55;;;37.20;52.10;;;;;;4784411;28;20208;-84
2021/09/06 09:30:10;;;;;;;8.15;1.15;;;39.30;52.80;;;;;;4784740;28;20256;-77
2021/09/06 09:32:48;;;;;;;18.13;2.30;;;;;;;;;;4749616;29;20610;-80
2021/09/06 09:35:30;;;;;;;13.43;1.83;;;40.80;53.30;;;;;;4774562;28;20635;-74
2021/09/06 09:38:01;;;;;;;24.90;3.08;;;41.30;53.50;;;;;;4796538;28;20604;-76
2021/09/06 09:40:32;;;;;;;19.25;2.58;;;41.90;53.70;;;;;;4800370;28;20192;-77
2021/09/06 09:42:56;;;;;;;17.55;2.25;;;;;;;;;;4796719;28;20180;-76
2021/09/06 09:45:25;;;;;;;13.90;1.83;;;43.20;54.20;;;;;;4800326;28;20192;-87
2021/09/06 09:48:09;;;;;;;10.35;1.38;;;;;;;;;;4778851;28;20850;-84
2021/09/06 09:50:36;;;;;;;13.02;1.70;;;43.60;54.30;;;;;;4796346;28;20192;-82
2021/09/06 09:53:01;;;;;;;8.43;1.08;;;;;;;;;;4778262;29;20574;-82
2021/09/06 09:55:26;;;;;;;13.52;1.75;;;43.90;54.50;;;;;;4786125;28;20224;-83
2021/09/06 09:57:49;;;;;;;28.05;3.45;;;;;;;;;;4799588;28;20191;-81
2021/09/06 10:00:14;;;;;;;9.43;1.23;;;44.30;54.60;;;;;;4799010;28;20708;-88
2021/09/06 10:02:39;;;;;;;14.40;1.88;;;;;;;;;;4794723;28;20286;-83
2021/09/06 10:05:04;;;;;;;11.48;1.52;;;45.20;54.90;;;;;;4793503;28;20208;-84
2021/09/06 10:07:34;;;;;;;14.70;1.92;;;45.10;54.90;;;;;;4801876;28;20238;-84
2021/09/06 10:09:57;;;;;;;23.25;2.90;;;;;;;;;;4781905;29;20240;-80
2021/09/06 10:12:23;;;;;;;12.30;1.60;;;44.30;54.60;;;;;;4799876;28;20196;-81
2021/09/06 10:14:51;;;;;;;21.52;2.55;;;44.10;54.60;;;;;;4797298;28;20194;-81
2021/09/06 10:17:15;;;;;;;13.68;1.77;;;;;;;;;;4792578;28;20208;-86
2021/09/06 10:19:40;;;;;;;20.42;2.53;;;43.50;54.40;;;;;;4800843;28;20232;-86
2021/09/06 10:22:04;;;;;;;8.00;1.05;;;43.90;54.60;;;;;;4800602;28;20179;-83
2021/09/06 10:24:29;;;;;;;15.85;2.00;;;44.30;54.60;;;;;;4801028;28;20262;-84
2021/09/06 10:26:52;;;;;;;19.40;2.40;;;;;;;;;;4801110;28;20191;-81
2021/09/06 10:29:18;;;;;;;14.25;1.85;;;43.90;54.50;;;;;;4780308;28;20188;-80
2021/09/06 10:31:42;;;;;;;5.60;0.80;;;43.60;53.30;;;;;;4798662;28;20583;-83
2021/09/06 10:34:08;;;;;;;10.57;1.40;;;43.70;53.50;;;;;;4789354;28;20239;-85
2021/09/06 10:36:31;;;;;;;14.00;1.83;;;43.70;53.00;;;;;;4782569;29;20192;-85
2021/09/06 10:39:04;;;;;;;21.60;2.72;;;44.00;53.10;;;;;;4791642;28;20192;-82
2021/09/06 10:41:28;;;;;;;12.75;1.65;;;44.70;54.70;;;;;;4799393;28;20246;-76
2021/09/06 10:43:53;;;;;;;26.02;3.30;;;44.90;54.90;;;;;;4800556;28;20286;-84
2021/09/06 10:46:21;;;;;;;18.00;2.38;;;45.20;54.90;;;;;;4796884;28;20616;-84
2021/09/06 10:48:46;;;;;;;20.25;2.50;;;;;;;;;;4787748;28;20668;-83
2021/09/06 10:51:10;;;;;;;51.38;6.10;;;;;;;;;;4781782;29;20236;-84
2021/09/06 10:53:33;;;;;;;14.65;1.95;;;;;;;;;;4792097;28;20556;-80
2021/09/06 10:55:57;;;;;;;22.80;2.80;;;46.90;55.50;;;;;;4797041;28;20183;-85
2021/09/06 10:58:24;;;;;;;9.05;1.25;;;46.70;55.40;;;;;;4801289;28;20199;-88
2021/09/06 11:00:52;;;;;;;40.03;4.70;;;;;;;;;;4799335;28;20227;-84
2021/09/06 11:03:15;;;;;;;13.50;1.80;;;;;;;;;;4785051;28;20633;-77
2021/09/06 11:05:38;;;;;;;15.55;2.05;;;;;;;;;;4786829;28;20215;-77
2021/09/06 11:08:05;;;;;;;12.98;1.75;;;47.50;55.70;;;;;;4796527;28;20188;-78
2021/09/06 11:10:30;;;;;;;19.00;2.35;;;;;;;;;;4799977;28;20250;-79
2021/09/06 11:12:54;;;;;;;34.38;4.25;;;47.50;55.70;;;;;;4798125;28;20595;-77
2021/09/06 11:15:24;;;;;;;20.45;2.50;;;47.50;55.70;;;;;;4794915;28;20192;-77
2021/09/06 11:17:58;;;;;;;27.50;3.42;;;47.90;55.80;;;;;;4799338;28;20196;-84
2021/09/06 11:20:22;;;;;;;10.52;1.42;;;;;;;;;;4793932;28;20247;-74
2021/09/06 11:22:45;;;;;;;38.13;4.75;;;;;;;;;;4789447;28;20192;-76
2021/09/06 11:25:08;;;;;;;15.80;2.15;;;;;;;;;;4794176;28;20214;-85
2021/09/06 11:27:34;;;;;;;12.50;1.63;;;47.90;55.80;;;;;;4800115;28;20188;-84
2021/09/06 11:29:57;;;;;;;24.00;2.92;;;;;;;;;;4782420;28;20220;-83
2021/09/06 11:32:21;;;;;;;13.05;1.73;;;48.00;55.90;;;;;;4799566;28;20196;-88
2021/09/06 11:34:44;;;;;;;14.48;1.92;;;;;;;;;;4799676;28;20184;-77
2021/09/06 11:37:08;;;;;;;10.50;1.42;;;47.90;55.80;;;;;;4800267;28;20231;-78
2021/09/06 11:39:31;;;;;;;14.48;1.98;;;;;;;;;;4799739;28;20239;-75
2021/09/06 11:41:54;;;;;;;18.77;2.40;;;;;;;;;;4799766;28;20542;-87
2021/09/06 11:44:17;;;;;;;7.30;1.13;;;;;;;;;;4801189;28;20204;-88
2021/09/06 11:46:42;;;;;;;10.52;1.48;;;50.10;56.50;;;;;;4800785;28;20223;-88
2021/09/06 11:49:06;;;;;;;8.57;1.33;;;50.60;56.70;;;;;;4795055;28;20246;-82
2021/09/06 11:51:29;;;;;;;9.77;2.70;;;;;;;;;;4800124;28;20730;-82
2021/09/06 11:53:56;;;;;;;18.52;2.90;;;50.70;56.80;;;;;;4800742;28;20197;-89
2021/09/06 11:56:19;;;;;;;21.73;2.72;;;;;;;;;;4799379;28;20195;-83
2021/09/06 11:58:44;;;;;;;13.15;1.65;;;51.00;56.90;;;;;;4799297;28;20188;-74
2021/09/06 12:01:09;;;;;;;33.85;4.85;;;;;;;;;;4795400;28;20712;-84
2021/09/06 12:03:33;;;;;;;21.02;2.63;;;;;;;;;;4799216;28;20696;-83
2021/09/06 12:06:04;;;;;;;69.22;62.50;;;49.80;56.40;;;;;;4796105;28;20607;-85
2021/09/06 12:08:27;;;;;;;246.27;229.25;;;;;;;;;;4798851;28;20188;-76
2021/09/06 12:10:50;;;;;;;443.92;403.83;;;;;;;;;;4792586;28;20589;-73
2021/09/06 12:13:20;;;;;;;396.77;369.15;;;51.20;56.90;;;;;;4782733;28;20216;-86
2021/09/06 12:15:53;;;;;;;338.73;318.23;;;51.70;57.10;;;;;;4795264;28;20207;-88
2021/09/06 12:18:16;;;;;;;260.85;245.77;;;;;;;;;;4798546;28;20227;-86
2021/09/06 12:20:41;;;;;;;165.10;156.15;;;51.80;57.10;;;;;;4800867;28;20176;-88
2021/09/06 12:23:06;;;;;;;130.25;123.03;;;51.80;57.10;;;;;;4801256;28;20238;-86
2021/09/06 12:25:29;;;;;;;255.18;240.63;;;;;;;;;;4794982;28;20883;-85
2021/09/06 12:27:52;;;;;;;187.98;176.95;;;51.70;57.10;;;;;;4803949;28;20191;-88
2021/09/06 12:30:15;;;;;;;225.55;212.93;;;;;;;;;;4802352;28;20715;-83
2021/09/06 12:32:37;;;;;;;266.08;252.10;;;;;;;;;;4787010;28;20240;-90
2021/09/06 12:35:00;;;;;;;208.65;195.88;;;;;;;;;;4787015;28;20241;-83
2021/09/06 12:37:23;;;;;;;196.23;185.85;;;53.50;57.60;;;;;;4803371;28;20192;-91
2021/09/06 12:39:47;;;;;;;207.82;195.38;;;54.00;50.40;;;;;;4802135;28;20200;-79
2021/09/06 12:42:10;;;;;;;162.32;153.25;;;;;;;;;;4804149;28;20274;-77
2021/09/06 12:44:34;;;;;;;165.65;156.27;;;54.30;50.40;;;;;;4803182;28;20183;-83
2021/09/06 12:46:57;;;;;;;252.57;238.05;;;;;;;;;;4803250;28;20639;-87
2021/09/06 12:49:20;;;;;;;183.05;173.18;;;;;;;;;;4785201;28;20253;-85
2021/09/06 12:51:43;;;;;;;180.45;171.05;;;;;;;;;;4802781;28;20188;-83
2021/09/06 12:54:08;;;;;;;218.90;205.73;;;;;;;;;;4802488;28;20192;-90
2021/09/06 12:56:33;;;;;;;296.55;280.55;;;55.80;50.90;;;;;;4796512;28;20250;-85
2021/09/06 12:58:56;;;;;;;236.80;222.68;;;;;;;;;;4785464;28;20240;-87
2021/09/06 13:01:19;;;;;;;269.98;254.00;;;;;;;;;;4783254;28;20240;-84
2021/09/06 13:03:42;;;;;;;233.48;221.25;;;;;;;;;;4787084;28;20236;-81
2021/09/06 13:06:05;;;;;;;192.68;182.45;;;;;;;;;;4803859;28;20733;-85
2021/09/06 13:08:28;;;;;;;263.58;248.95;;;;;;;;;;4803344;28;20246;-86
2021/09/06 13:10:51;;;;;;;337.45;316.83;;;;;;;;;;4784384;28;20184;-82
2021/09/06 13:13:15;;;;;;;231.40;219.32;;;52.30;57.30;;;;;;4775218;28;20200;-83
2021/09/06 13:15:38;;;;;;;244.43;230.52;;;48.80;56.20;;;;;;4802940;28;20216;-85
2021/09/06 13:18:01;;;;;;;159.65;149.63;;;;;;;;;;4801675;28;20278;-91
2021/09/06 13:20:24;;;;;;;69.07;63.33;;;;;;;;;;4797487;28;20653;-86
2021/09/06 13:22:47;;;;;;;110.47;102.78;;;;;;;;;;4798903;28;20212;-90
2021/09/06 13:25:10;;;;;;;170.27;160.75;;;38.70;52.90;;;;;;4801390;28;20211;-86
2021/09/06 13:27:33;;;;;;;276.33;257.45;;;;;;;;;;4798415;28;20192;-88
2021/09/06 13:29:57;;;;;;;224.25;210.05;;;34.90;51.50;;;;;;4803939;28;20250;-88
2021/09/06 13:32:22;;;;;;;243.40;226.40;;;;;;;;;;4802443;28;20239;-88
2021/09/06 13:34:45;;;;;;;338.98;289.35;;;;;;;;;;4796986;28;20269;-77
2021/09/06 13:37:08;;;;;;;412.00;303.15;;;31.70;50.50;;;;;;4802856;28;20239;-92
2021/09/06 13:39:31;;;;;;;435.20;291.83;;;30.80;50.10;;;;;;4802559;28;20184;-85
2021/09/06 13:41:57;;;;;;;445.17;282.33;;;30.00;49.90;;;;;;4801745;28;20442;-87
2021/09/06 13:44:20;;;;;;;422.17;262.47;;;;;;;;;;4802557;28;20239;-86